sensor_id;sensor_type;location;lat;lon;timestamp;P1;durP1;ratioP1;P2;durP2;ratioP2
20462;SDS011;10390;53.566;9.980;2022-12-07T00:01:19;6.30;;;3.15;;
20462;SDS011;10390;53.566;9.980;2022-12-07T00:03:49;6.25;;;2.92;;
20462;SDS011;10390;53.566;9.980;2022-12-07T00:06:17;6.22;;;3.58;;
20462;SDS011;10390;53.566;9.980;2022-12-07T00:08:44;4.82;;;3.20;;
20462;SDS011;10390;53.566;9.980;2022-12-07T00:11:15;5.07;;;3.30;;
20462;SDS011;10390;53.566;9.980;2022-12-07T00:13:44;4.78;;;2.80;;
20462;SDS011;10390;53.566;9.980;2022-12-07T00:16:15;4.90;;;3.30;;
20462;SDS011;10390;53.566;9.980;2022-12-07T00:18:43;5.38;;;3.20;;
20462;SDS011;10390;53.566;9.980;2022-12-07T00:21:10;5.40;;;2.95;;
20462;SDS011;10390;53.566;9.980;2022-12-07T00:23:41;6.93;;;3.22;;
20462;SDS011;10390;53.566;9.980;2022-12-07T00:26:15;5.93;;;3.42;;
20462;SDS011;10390;53.566;9.980;2022-12-07T00:28:46;5.85;;;3.40;;
20462;SDS011;10390;53.566;9.980;2022-12-07T00:31:14;5.47;;;3.15;;
20462;SDS011;10390;53.566;9.980;2022-12-07T00:33:43;5.13;;;3.20;;
20462;SDS011;10390;53.566;9.980;2022-12-07T00:36:10;5.68;;;3.42;;
20462;SDS011;10390;53.566;9.980;2022-12-07T00:38:39;5.78;;;3.33;;
20462;SDS011;10390;53.566;9.980;2022-12-07T00:41:11;5.75;;;3.30;;
20462;SDS011;10390;53.566;9.980;2022-12-07T00:43:41;6.65;;;3.28;;
20462;SDS011;10390;53.566;9.980;2022-12-07T00:46:08;4.57;;;2.92;;
20462;SDS011;10390;53.566;9.980;2022-12-07T00:48:35;6.38;;;2.97;;
20462;SDS011;10390;53.566;9.980;2022-12-07T00:51:01;4.50;;;3.20;;
20462;SDS011;10390;53.566;9.980;2022-12-07T00:53:28;4.20;;;2.80;;
20462;SDS011;10390;53.566;9.980;2022-12-07T00:55:54;4.72;;;2.97;;
20462;SDS011;10390;53.566;9.980;2022-12-07T00:58:21;4.80;;;3.03;;
20462;SDS011;10390;53.566;9.980;2022-12-07T01:00:48;6.35;;;2.95;;
20462;SDS011;10390;53.566;9.980;2022-12-07T01:03:14;5.00;;;3.03;;
20462;SDS011;10390;53.566;9.980;2022-12-07T01:05:48;5.07;;;3.05;;
20462;SDS011;10390;53.566;9.980;2022-12-07T01:08:17;4.25;;;2.88;;
20462;SDS011;10390;53.566;9.980;2022-12-07T01:10:43;4.53;;;2.92;;
20462;SDS011;10390;53.566;9.980;2022-12-07T01:13:09;5.13;;;2.88;;
20462;SDS011;10390;53.566;9.980;2022-12-07T01:15:38;5.18;;;3.35;;
20462;SDS011;10390;53.566;9.980;2022-12-07T01:18:08;4.82;;;3.10;;
20462;SDS011;10390;53.566;9.980;2022-12-07T01:20:36;5.10;;;2.90;;
20462;SDS011;10390;53.566;9.980;2022-12-07T01:23:02;5.05;;;3.33;;
20462;SDS011;10390;53.566;9.980;2022-12-07T01:25:28;4.60;;;3.28;;
20462;SDS011;10390;53.566;9.980;2022-12-07T01:27:54;5.22;;;3.30;;
20462;SDS011;10390;53.566;9.980;2022-12-07T01:30:21;6.07;;;3.28;;
20462;SDS011;10390;53.566;9.980;2022-12-07T01:32:46;4.85;;;3.38;;
20462;SDS011;10390;53.566;9.980;2022-12-07T01:35:12;5.57;;;3.45;;
20462;SDS011;10390;53.566;9.980;2022-12-07T01:37:38;5.13;;;3.20;;
20462;SDS011;10390;53.566;9.980;2022-12-07T01:40:05;5.40;;;3.50;;
20462;SDS011;10390;53.566;9.980;2022-12-07T01:42:33;4.35;;;3.22;;
20462;SDS011;10390;53.566;9.980;2022-12-07T01:47:45;5.57;;;3.33;;
20462;SDS011;10390;53.566;9.980;2022-12-07T01:50:17;5.30;;;3.25;;
20462;SDS011;10390;53.566;9.980;2022-12-07T01:52:44;6.10;;;3.60;;
20462;SDS011;10390;53.566;9.980;2022-12-07T01:55:15;6.63;;;3.40;;
20462;SDS011;10390;53.566;9.980;2022-12-07T01:57:43;4.93;;;3.25;;
20462;SDS011;10390;53.566;9.980;2022-12-07T02:00:14;5.45;;;3.47;;
20462;SDS011;10390;53.566;9.980;2022-12-07T02:03:29;4.93;;;3.33;;
20462;SDS011;10390;53.566;9.980;2022-12-07T02:05:37;5.82;;;3.22;;
20462;SDS011;10390;53.566;9.980;2022-12-07T02:08:05;5.25;;;3.00;;
20462;SDS011;10390;53.566;9.980;2022-12-07T02:10:32;5.45;;;3.38;;
20462;SDS011;10390;53.566;9.980;2022-12-07T02:13:00;5.60;;;3.55;;
20462;SDS011;10390;53.566;9.980;2022-12-07T02:15:41;5.07;;;3.53;;
20462;SDS011;10390;53.566;9.980;2022-12-07T02:18:10;4.40;;;3.00;;
20462;SDS011;10390;53.566;9.980;2022-12-07T02:23:40;5.80;;;3.50;;
20462;SDS011;10390;53.566;9.980;2022-12-07T02:26:24;4.60;;;3.30;;
20462;SDS011;10390;53.566;9.980;2022-12-07T02:31:47;6.25;;;3.40;;
20462;SDS011;10390;53.566;9.980;2022-12-07T02:34:58;4.85;;;3.55;;
20462;SDS011;10390;53.566;9.980;2022-12-07T02:40:47;5.50;;;3.63;;
20462;SDS011;10390;53.566;9.980;2022-12-07T02:43:26;4.40;;;3.20;;
20462;SDS011;10390;53.566;9.980;2022-12-07T02:46:01;6.43;;;3.75;;
20462;SDS011;10390;53.566;9.980;2022-12-07T02:48:32;4.90;;;3.70;;
20462;SDS011;10390;53.566;9.980;2022-12-07T02:50:59;5.35;;;3.50;;
20462;SDS011;10390;53.566;9.980;2022-12-07T02:53:32;5.45;;;3.70;;
20462;SDS011;10390;53.566;9.980;2022-12-07T02:56:24;5.00;;;3.35;;
20462;SDS011;10390;53.566;9.980;2022-12-07T03:02:28;6.78;;;3.53;;
20462;SDS011;10390;53.566;9.980;2022-12-07T03:05:22;5.30;;;3.42;;
20462;SDS011;10390;53.566;9.980;2022-12-07T03:18:44;4.72;;;3.28;;
20462;SDS011;10390;53.566;9.980;2022-12-07T03:21:23;5.15;;;3.60;;
20462;SDS011;10390;53.566;9.980;2022-12-07T03:24:14;8.00;;;3.33;;
20462;SDS011;10390;53.566;9.980;2022-12-07T03:26:46;4.57;;;3.20;;
20462;SDS011;10390;53.566;9.980;2022-12-07T03:29:19;5.80;;;3.42;;
20462;SDS011;10390;53.566;9.980;2022-12-07T03:31:55;5.30;;;3.40;;
20462;SDS011;10390;53.566;9.980;2022-12-07T03:34:32;4.65;;;2.90;;
20462;SDS011;10390;53.566;9.980;2022-12-07T03:37:11;4.75;;;3.35;;
20462;SDS011;10390;53.566;9.980;2022-12-07T03:39:53;6.78;;;3.65;;
20462;SDS011;10390;53.566;9.980;2022-12-07T03:42:23;5.30;;;3.38;;
20462;SDS011;10390;53.566;9.980;2022-12-07T03:44:50;5.00;;;3.30;;
20462;SDS011;10390;53.566;9.980;2022-12-07T03:50:06;5.75;;;3.53;;
20462;SDS011;10390;53.566;9.980;2022-12-07T03:52:42;4.90;;;3.40;;
20462;SDS011;10390;53.566;9.980;2022-12-07T03:55:18;5.55;;;3.90;;
20462;SDS011;10390;53.566;9.980;2022-12-07T03:57:53;5.55;;;3.90;;
20462;SDS011;10390;53.566;9.980;2022-12-07T04:00:24;6.38;;;3.40;;
20462;SDS011;10390;53.566;9.980;2022-12-07T04:02:53;4.75;;;3.45;;
20462;SDS011;10390;53.566;9.980;2022-12-07T04:05:20;5.35;;;3.50;;
20462;SDS011;10390;53.566;9.980;2022-12-07T04:07:45;5.57;;;3.53;;
20462;SDS011;10390;53.566;9.980;2022-12-07T04:10:12;4.53;;;3.22;;
20462;SDS011;10390;53.566;9.980;2022-12-07T04:12:38;4.68;;;3.20;;
20462;SDS011;10390;53.566;9.980;2022-12-07T04:15:04;5.28;;;3.63;;
20462;SDS011;10390;53.566;9.980;2022-12-07T04:17:31;5.18;;;3.63;;
20462;SDS011;10390;53.566;9.980;2022-12-07T04:19:57;6.05;;;3.75;;
20462;SDS011;10390;53.566;9.980;2022-12-07T04:22:23;4.70;;;3.30;;
20462;SDS011;10390;53.566;9.980;2022-12-07T04:24:48;4.72;;;3.10;;
20462;SDS011;10390;53.566;9.980;2022-12-07T04:27:14;4.88;;;3.50;;
20462;SDS011;10390;53.566;9.980;2022-12-07T04:29:40;5.65;;;3.60;;
20462;SDS011;10390;53.566;9.980;2022-12-07T04:32:06;4.90;;;3.50;;
20462;SDS011;10390;53.566;9.980;2022-12-07T04:34:32;5.18;;;3.50;;
20462;SDS011;10390;53.566;9.980;2022-12-07T04:36:58;5.03;;;3.38;;
20462;SDS011;10390;53.566;9.980;2022-12-07T04:39:28;5.10;;;3.65;;
20462;SDS011;10390;53.566;9.980;2022-12-07T04:41:56;4.60;;;3.10;;
20462;SDS011;10390;53.566;9.980;2022-12-07T04:44:23;5.05;;;3.40;;
20462;SDS011;10390;53.566;9.980;2022-12-07T04:46:50;5.53;;;3.55;;
20462;SDS011;10390;53.566;9.980;2022-12-07T04:49:17;5.28;;;3.47;;
20462;SDS011;10390;53.566;9.980;2022-12-07T04:51:43;5.15;;;3.33;;
20462;SDS011;10390;53.566;9.980;2022-12-07T04:54:10;5.00;;;3.28;;
20462;SDS011;10390;53.566;9.980;2022-12-07T04:56:38;5.20;;;3.60;;
20462;SDS011;10390;53.566;9.980;2022-12-07T04:59:04;5.53;;;3.70;;
20462;SDS011;10390;53.566;9.980;2022-12-07T05:01:30;4.78;;;3.33;;
20462;SDS011;10390;53.566;9.980;2022-12-07T05:03:57;5.05;;;3.45;;
20462;SDS011;10390;53.566;9.980;2022-12-07T05:06:23;5.20;;;3.80;;
20462;SDS011;10390;53.566;9.980;2022-12-07T05:08:49;5.35;;;3.70;;
20462;SDS011;10390;53.566;9.980;2022-12-07T05:11:15;5.70;;;3.30;;
20462;SDS011;10390;53.566;9.980;2022-12-07T05:14:00;5.18;;;3.50;;
20462;SDS011;10390;53.566;9.980;2022-12-07T05:16:27;5.63;;;4.10;;
20462;SDS011;10390;53.566;9.980;2022-12-07T05:18:53;4.95;;;3.42;;
20462;SDS011;10390;53.566;9.980;2022-12-07T05:21:19;5.60;;;3.50;;
20462;SDS011;10390;53.566;9.980;2022-12-07T05:23:45;4.53;;;3.30;;
20462;SDS011;10390;53.566;9.980;2022-12-07T05:26:10;5.70;;;3.70;;
20462;SDS011;10390;53.566;9.980;2022-12-07T05:28:36;4.75;;;3.67;;
20462;SDS011;10390;53.566;9.980;2022-12-07T05:31:02;4.95;;;3.60;;
20462;SDS011;10390;53.566;9.980;2022-12-07T05:33:28;5.03;;;3.55;;
20462;SDS011;10390;53.566;9.980;2022-12-07T05:35:54;5.38;;;3.92;;
20462;SDS011;10390;53.566;9.980;2022-12-07T05:38:20;5.18;;;3.53;;
20462;SDS011;10390;53.566;9.980;2022-12-07T05:40:46;4.88;;;3.67;;
20462;SDS011;10390;53.566;9.980;2022-12-07T05:43:13;4.82;;;3.75;;
20462;SDS011;10390;53.566;9.980;2022-12-07T05:45:38;4.85;;;3.30;;
20462;SDS011;10390;53.566;9.980;2022-12-07T05:48:04;4.97;;;3.60;;
20462;SDS011;10390;53.566;9.980;2022-12-07T05:50:30;7.20;;;3.38;;
20462;SDS011;10390;53.566;9.980;2022-12-07T05:52:56;5.70;;;3.55;;
20462;SDS011;10390;53.566;9.980;2022-12-07T05:55:22;5.20;;;3.63;;
20462;SDS011;10390;53.566;9.980;2022-12-07T05:57:47;5.18;;;3.40;;
20462;SDS011;10390;53.566;9.980;2022-12-07T06:00:32;5.57;;;3.90;;
20462;SDS011;10390;53.566;9.980;2022-12-07T06:02:58;5.78;;;3.92;;
20462;SDS011;10390;53.566;9.980;2022-12-07T06:05:24;5.85;;;3.90;;
20462;SDS011;10390;53.566;9.980;2022-12-07T06:07:50;5.30;;;3.65;;
20462;SDS011;10390;53.566;9.980;2022-12-07T06:10:16;5.47;;;3.67;;
20462;SDS011;10390;53.566;9.980;2022-12-07T06:12:42;7.78;;;4.38;;
20462;SDS011;10390;53.566;9.980;2022-12-07T06:15:08;6.30;;;3.92;;
20462;SDS011;10390;53.566;9.980;2022-12-07T06:17:35;6.47;;;3.90;;
20462;SDS011;10390;53.566;9.980;2022-12-07T06:20:02;6.50;;;4.13;;
20462;SDS011;10390;53.566;9.980;2022-12-07T06:22:29;5.63;;;3.97;;
20462;SDS011;10390;53.566;9.980;2022-12-07T06:24:55;6.53;;;3.90;;
20462;SDS011;10390;53.566;9.980;2022-12-07T06:27:20;5.40;;;3.83;;
20462;SDS011;10390;53.566;9.980;2022-12-07T06:29:46;6.20;;;3.67;;
20462;SDS011;10390;53.566;9.980;2022-12-07T06:32:12;5.03;;;3.40;;
20462;SDS011;10390;53.566;9.980;2022-12-07T06:34:38;6.70;;;4.13;;
20462;SDS011;10390;53.566;9.980;2022-12-07T06:37:04;7.97;;;3.72;;
20462;SDS011;10390;53.566;9.980;2022-12-07T06:39:29;5.55;;;3.90;;
20462;SDS011;10390;53.566;9.980;2022-12-07T06:41:57;6.90;;;4.95;;
20462;SDS011;10390;53.566;9.980;2022-12-07T06:44:23;8.55;;;4.40;;
20462;SDS011;10390;53.566;9.980;2022-12-07T06:46:50;6.63;;;4.85;;
20462;SDS011;10390;53.566;9.980;2022-12-07T06:49:16;8.30;;;4.50;;
20462;SDS011;10390;53.566;9.980;2022-12-07T06:51:42;8.80;;;4.40;;
20462;SDS011;10390;53.566;9.980;2022-12-07T06:54:12;9.05;;;4.60;;
20462;SDS011;10390;53.566;9.980;2022-12-07T06:56:39;8.95;;;5.20;;
20462;SDS011;10390;53.566;9.980;2022-12-07T06:59:07;10.00;;;4.60;;
20462;SDS011;10390;53.566;9.980;2022-12-07T07:01:33;7.15;;;4.85;;
20462;SDS011;10390;53.566;9.980;2022-12-07T07:04:00;7.22;;;4.57;;
20462;SDS011;10390;53.566;9.980;2022-12-07T07:06:26;9.40;;;4.45;;
20462;SDS011;10390;53.566;9.980;2022-12-07T07:08:55;8.95;;;4.95;;
20462;SDS011;10390;53.566;9.980;2022-12-07T07:11:21;10.80;;;5.00;;
20462;SDS011;10390;53.566;9.980;2022-12-07T07:13:47;7.13;;;4.85;;
20462;SDS011;10390;53.566;9.980;2022-12-07T07:16:13;8.85;;;4.90;;
20462;SDS011;10390;53.566;9.980;2022-12-07T07:18:39;13.63;;;5.35;;
20462;SDS011;10390;53.566;9.980;2022-12-07T07:21:06;8.70;;;4.50;;
20462;SDS011;10390;53.566;9.980;2022-12-07T07:23:31;12.55;;;4.57;;
20462;SDS011;10390;53.566;9.980;2022-12-07T07:25:58;7.43;;;4.28;;
20462;SDS011;10390;53.566;9.980;2022-12-07T07:28:24;13.88;;;4.70;;
20462;SDS011;10390;53.566;9.980;2022-12-07T07:30:49;11.38;;;4.80;;
20462;SDS011;10390;53.566;9.980;2022-12-07T07:33:16;7.47;;;4.53;;
20462;SDS011;10390;53.566;9.980;2022-12-07T07:35:42;8.73;;;4.97;;
20462;SDS011;10390;53.566;9.980;2022-12-07T07:38:08;10.38;;;4.22;;
20462;SDS011;10390;53.566;9.980;2022-12-07T07:40:33;6.57;;;4.50;;
20462;SDS011;10390;53.566;9.980;2022-12-07T07:43:00;8.30;;;4.72;;
20462;SDS011;10390;53.566;9.980;2022-12-07T07:45:26;8.25;;;4.43;;
20462;SDS011;10390;53.566;9.980;2022-12-07T07:47:52;6.65;;;4.50;;
20462;SDS011;10390;53.566;9.980;2022-12-07T07:50:18;7.45;;;4.30;;
20462;SDS011;10390;53.566;9.980;2022-12-07T07:52:45;7.38;;;4.85;;
20462;SDS011;10390;53.566;9.980;2022-12-07T07:55:11;8.80;;;4.68;;
20462;SDS011;10390;53.566;9.980;2022-12-07T07:57:37;8.60;;;4.43;;
20462;SDS011;10390;53.566;9.980;2022-12-07T08:00:05;8.13;;;4.90;;
20462;SDS011;10390;53.566;9.980;2022-12-07T08:02:35;11.23;;;5.00;;
20462;SDS011;10390;53.566;9.980;2022-12-07T08:05:01;8.25;;;4.30;;
20462;SDS011;10390;53.566;9.980;2022-12-07T08:07:28;15.02;;;5.10;;
20462;SDS011;10390;53.566;9.980;2022-12-07T08:09:53;9.75;;;4.75;;
20462;SDS011;10390;53.566;9.980;2022-12-07T08:12:20;7.78;;;4.70;;
20462;SDS011;10390;53.566;9.980;2022-12-07T08:14:46;14.18;;;4.90;;
20462;SDS011;10390;53.566;9.980;2022-12-07T08:17:12;8.40;;;4.85;;
20462;SDS011;10390;53.566;9.980;2022-12-07T08:19:38;11.15;;;4.82;;
20462;SDS011;10390;53.566;9.980;2022-12-07T08:22:04;9.93;;;5.05;;
20462;SDS011;10390;53.566;9.980;2022-12-07T08:24:32;11.27;;;4.68;;
20462;SDS011;10390;53.566;9.980;2022-12-07T08:26:59;9.38;;;4.68;;
20462;SDS011;10390;53.566;9.980;2022-12-07T08:29:25;11.70;;;4.85;;
20462;SDS011;10390;53.566;9.980;2022-12-07T08:31:51;14.65;;;5.15;;
20462;SDS011;10390;53.566;9.980;2022-12-07T08:34:18;9.75;;;4.28;;
20462;SDS011;10390;53.566;9.980;2022-12-07T08:36:44;9.13;;;4.45;;
20462;SDS011;10390;53.566;9.980;2022-12-07T08:39:10;6.82;;;4.18;;
20462;SDS011;10390;53.566;9.980;2022-12-07T08:41:36;9.00;;;4.35;;
20462;SDS011;10390;53.566;9.980;2022-12-07T08:44:02;7.55;;;3.97;;
20462;SDS011;10390;53.566;9.980;2022-12-07T08:46:36;9.68;;;4.28;;
20462;SDS011;10390;53.566;9.980;2022-12-07T08:49:15;7.85;;;4.50;;
20462;SDS011;10390;53.566;9.980;2022-12-07T08:51:48;11.65;;;4.90;;
20462;SDS011;10390;53.566;9.980;2022-12-07T08:54:15;8.55;;;4.13;;
20462;SDS011;10390;53.566;9.980;2022-12-07T08:56:42;7.25;;;4.53;;
20462;SDS011;10390;53.566;9.980;2022-12-07T08:59:10;8.07;;;4.32;;
20462;SDS011;10390;53.566;9.980;2022-12-07T09:01:39;11.13;;;4.30;;
20462;SDS011;10390;53.566;9.980;2022-12-07T09:04:05;7.47;;;4.18;;
20462;SDS011;10390;53.566;9.980;2022-12-07T09:06:30;7.93;;;4.55;;
20462;SDS011;10390;53.566;9.980;2022-12-07T09:08:57;7.63;;;4.53;;
20462;SDS011;10390;53.566;9.980;2022-12-07T09:11:28;5.90;;;4.25;;
20462;SDS011;10390;53.566;9.980;2022-12-07T09:13:56;7.28;;;4.68;;
20462;SDS011;10390;53.566;9.980;2022-12-07T09:16:22;9.20;;;4.60;;
20462;SDS011;10390;53.566;9.980;2022-12-07T09:18:48;6.20;;;4.00;;
20462;SDS011;10390;53.566;9.980;2022-12-07T09:21:13;7.10;;;4.35;;
20462;SDS011;10390;53.566;9.980;2022-12-07T09:23:41;6.72;;;4.03;;
20462;SDS011;10390;53.566;9.980;2022-12-07T09:26:07;9.38;;;4.50;;
20462;SDS011;10390;53.566;9.980;2022-12-07T09:28:34;5.47;;;4.20;;
20462;SDS011;10390;53.566;9.980;2022-12-07T09:31:01;5.90;;;3.90;;
20462;SDS011;10390;53.566;9.980;2022-12-07T09:33:28;7.05;;;4.28;;
20462;SDS011;10390;53.566;9.980;2022-12-07T09:35:53;6.47;;;4.03;;
20462;SDS011;10390;53.566;9.980;2022-12-07T09:38:19;6.22;;;4.07;;
20462;SDS011;10390;53.566;9.980;2022-12-07T09:40:46;5.95;;;4.10;;
20462;SDS011;10390;53.566;9.980;2022-12-07T09:43:20;5.75;;;3.97;;
20462;SDS011;10390;53.566;9.980;2022-12-07T09:45:50;7.30;;;4.18;;
20462;SDS011;10390;53.566;9.980;2022-12-07T09:48:29;5.13;;;3.70;;
20462;SDS011;10390;53.566;9.980;2022-12-07T09:50:58;7.80;;;3.92;;
20462;SDS011;10390;53.566;9.980;2022-12-07T09:53:30;6.82;;;4.00;;
20462;SDS011;10390;53.566;9.980;2022-12-07T09:56:01;5.93;;;3.70;;
20462;SDS011;10390;53.566;9.980;2022-12-07T09:58:28;7.95;;;3.90;;
20462;SDS011;10390;53.566;9.980;2022-12-07T10:01:00;8.73;;;4.00;;
20462;SDS011;10390;53.566;9.980;2022-12-07T10:03:39;5.78;;;3.90;;
20462;SDS011;10390;53.566;9.980;2022-12-07T10:06:12;5.63;;;3.75;;
20462;SDS011;10390;53.566;9.980;2022-12-07T10:08:39;6.75;;;3.90;;
20462;SDS011;10390;53.566;9.980;2022-12-07T10:11:08;8.05;;;4.28;;
20462;SDS011;10390;53.566;9.980;2022-12-07T10:13:40;8.02;;;4.10;;
20462;SDS011;10390;53.566;9.980;2022-12-07T10:19:24;5.03;;;4.05;;
20462;SDS011;10390;53.566;9.980;2022-12-07T10:22:01;6.82;;;4.30;;
20462;SDS011;10390;53.566;9.980;2022-12-07T10:24:40;10.55;;;4.57;;
20462;SDS011;10390;53.566;9.980;2022-12-07T10:27:18;10.02;;;4.32;;
20462;SDS011;10390;53.566;9.980;2022-12-07T10:29:55;7.65;;;4.00;;
20462;SDS011;10390;53.566;9.980;2022-12-07T10:32:34;5.43;;;3.70;;
20462;SDS011;10390;53.566;9.980;2022-12-07T10:38:08;8.57;;;4.00;;
20462;SDS011;10390;53.566;9.980;2022-12-07T10:40:42;6.80;;;4.30;;
20462;SDS011;10390;53.566;9.980;2022-12-07T10:43:17;6.70;;;3.97;;
20462;SDS011;10390;53.566;9.980;2022-12-07T10:46:00;7.68;;;4.30;;
20462;SDS011;10390;53.566;9.980;2022-12-07T10:52:18;6.07;;;4.20;;
20462;SDS011;10390;53.566;9.980;2022-12-07T10:55:21;7.13;;;4.00;;
20462;SDS011;10390;53.566;9.980;2022-12-07T11:01:31;5.57;;;3.97;;
20462;SDS011;10390;53.566;9.980;2022-12-07T11:04:33;6.68;;;4.40;;
20462;SDS011;10390;53.566;9.980;2022-12-07T11:10:20;6.05;;;3.88;;
20462;SDS011;10390;53.566;9.980;2022-12-07T11:15:57;5.90;;;4.43;;
20462;SDS011;10390;53.566;9.980;2022-12-07T11:19:39;6.70;;;3.70;;
20462;SDS011;10390;53.566;9.980;2022-12-07T11:22:28;8.50;;;3.80;;
20462;SDS011;10390;53.566;9.980;2022-12-07T11:28:46;5.38;;;3.88;;
20462;SDS011;10390;53.566;9.980;2022-12-07T11:31:38;5.95;;;3.53;;
20462;SDS011;10390;53.566;9.980;2022-12-07T11:37:10;5.85;;;3.35;;
20462;SDS011;10390;53.566;9.980;2022-12-07T11:39:50;7.10;;;4.10;;
20462;SDS011;10390;53.566;9.980;2022-12-07T11:42:24;9.00;;;4.22;;
20462;SDS011;10390;53.566;9.980;2022-12-07T11:47:38;6.72;;;3.78;;
20462;SDS011;10390;53.566;9.980;2022-12-07T11:50:31;5.18;;;3.50;;
20462;SDS011;10390;53.566;9.980;2022-12-07T11:53:20;6.95;;;3.67;;
20462;SDS011;10390;53.566;9.980;2022-12-07T11:56:14;6.97;;;3.80;;
20462;SDS011;10390;53.566;9.980;2022-12-07T11:59:02;5.93;;;4.00;;
20462;SDS011;10390;53.566;9.980;2022-12-07T12:01:41;5.47;;;3.42;;
20462;SDS011;10390;53.566;9.980;2022-12-07T12:04:32;4.90;;;3.72;;
20462;SDS011;10390;53.566;9.980;2022-12-07T12:07:18;8.25;;;3.40;;
20462;SDS011;10390;53.566;9.980;2022-12-07T12:09:59;5.70;;;3.90;;
20462;SDS011;10390;53.566;9.980;2022-12-07T12:21:28;6.20;;;4.30;;
20462;SDS011;10390;53.566;9.980;2022-12-07T12:23:57;7.10;;;3.88;;
20462;SDS011;10390;53.566;9.980;2022-12-07T12:26:34;7.03;;;4.05;;
20462;SDS011;10390;53.566;9.980;2022-12-07T12:29:23;5.63;;;3.85;;
20462;SDS011;10390;53.566;9.980;2022-12-07T12:32:16;6.47;;;3.78;;
20462;SDS011;10390;53.566;9.980;2022-12-07T12:35:00;8.40;;;3.70;;
20462;SDS011;10390;53.566;9.980;2022-12-07T12:37:48;6.47;;;3.90;;
20462;SDS011;10390;53.566;9.980;2022-12-07T12:42:55;6.32;;;3.63;;
20462;SDS011;10390;53.566;9.980;2022-12-07T12:45:22;6.05;;;3.40;;
20462;SDS011;10390;53.566;9.980;2022-12-07T12:48:03;6.95;;;3.72;;
20462;SDS011;10390;53.566;9.980;2022-12-07T12:50:50;6.22;;;3.58;;
20462;SDS011;10390;53.566;9.980;2022-12-07T12:54:08;7.50;;;3.20;;
20462;SDS011;10390;53.566;9.980;2022-12-07T12:56:51;6.07;;;3.80;;
20462;SDS011;10390;53.566;9.980;2022-12-07T12:59:41;6.07;;;3.45;;
20462;SDS011;10390;53.566;9.980;2022-12-07T13:02:30;7.55;;;3.35;;
20462;SDS011;10390;53.566;9.980;2022-12-07T13:05:00;5.13;;;3.38;;
20462;SDS011;10390;53.566;9.980;2022-12-07T13:10:25;5.88;;;3.47;;
20462;SDS011;10390;53.566;9.980;2022-12-07T13:21:01;5.60;;;3.60;;
20462;SDS011;10390;53.566;9.980;2022-12-07T13:23:33;6.32;;;3.45;;
20462;SDS011;10390;53.566;9.980;2022-12-07T13:29:12;6.30;;;3.28;;
20462;SDS011;10390;53.566;9.980;2022-12-07T13:31:47;5.40;;;3.67;;
20462;SDS011;10390;53.566;9.980;2022-12-07T13:37:30;5.95;;;3.60;;
20462;SDS011;10390;53.566;9.980;2022-12-07T13:39:59;8.68;;;3.55;;
20462;SDS011;10390;53.566;9.980;2022-12-07T13:42:43;4.63;;;3.35;;
20462;SDS011;10390;53.566;9.980;2022-12-07T13:45:23;4.78;;;3.40;;
20462;SDS011;10390;53.566;9.980;2022-12-07T13:48:21;5.60;;;3.58;;
20462;SDS011;10390;53.566;9.980;2022-12-07T13:50:58;5.07;;;3.35;;
20462;SDS011;10390;53.566;9.980;2022-12-07T13:53:26;5.65;;;3.63;;
20462;SDS011;10390;53.566;9.980;2022-12-07T13:55:59;5.75;;;3.15;;
20462;SDS011;10390;53.566;9.980;2022-12-07T13:58:32;6.50;;;3.50;;
20462;SDS011;10390;53.566;9.980;2022-12-07T14:00:59;5.47;;;3.15;;
20462;SDS011;10390;53.566;9.980;2022-12-07T14:03:32;4.55;;;3.25;;
20462;SDS011;10390;53.566;9.980;2022-12-07T14:06:17;7.13;;;3.67;;
20462;SDS011;10390;53.566;9.980;2022-12-07T14:08:50;7.63;;;3.63;;
20462;SDS011;10390;53.566;9.980;2022-12-07T14:11:31;5.43;;;3.60;;
20462;SDS011;10390;53.566;9.980;2022-12-07T14:14:01;9.30;;;3.70;;
20462;SDS011;10390;53.566;9.980;2022-12-07T14:16:32;7.93;;;3.75;;
20462;SDS011;10390;53.566;9.980;2022-12-07T14:19:04;10.60;;;3.60;;
20462;SDS011;10390;53.566;9.980;2022-12-07T14:22:08;11.02;;;3.67;;
20462;SDS011;10390;53.566;9.980;2022-12-07T14:24:45;8.27;;;3.83;;
20462;SDS011;10390;53.566;9.980;2022-12-07T14:27:21;8.93;;;3.78;;
20462;SDS011;10390;53.566;9.980;2022-12-07T14:29:55;6.57;;;3.20;;
20462;SDS011;10390;53.566;9.980;2022-12-07T14:32:26;5.88;;;3.55;;
20462;SDS011;10390;53.566;9.980;2022-12-07T14:35:10;7.10;;;3.58;;
20462;SDS011;10390;53.566;9.980;2022-12-07T14:37:40;8.15;;;3.45;;
20462;SDS011;10390;53.566;9.980;2022-12-07T14:40:12;7.05;;;3.35;;
20462;SDS011;10390;53.566;9.980;2022-12-07T14:42:40;7.35;;;3.50;;
20462;SDS011;10390;53.566;9.980;2022-12-07T14:45:15;9.88;;;3.58;;
20462;SDS011;10390;53.566;9.980;2022-12-07T14:47:44;5.35;;;3.35;;
20462;SDS011;10390;53.566;9.980;2022-12-07T14:50:12;6.80;;;3.63;;
20462;SDS011;10390;53.566;9.980;2022-12-07T14:52:45;7.82;;;3.53;;
20462;SDS011;10390;53.566;9.980;2022-12-07T14:55:26;8.02;;;3.30;;
20462;SDS011;10390;53.566;9.980;2022-12-07T14:57:55;8.00;;;3.42;;
20462;SDS011;10390;53.566;9.980;2022-12-07T15:00:22;7.97;;;3.47;;
20462;SDS011;10390;53.566;9.980;2022-12-07T15:02:50;8.80;;;3.63;;
20462;SDS011;10390;53.566;9.980;2022-12-07T15:05:17;8.05;;;3.35;;
20462;SDS011;10390;53.566;9.980;2022-12-07T15:07:44;7.07;;;3.30;;
20462;SDS011;10390;53.566;9.980;2022-12-07T15:12:46;7.65;;;3.80;;
20462;SDS011;10390;53.566;9.980;2022-12-07T15:15:12;8.32;;;3.65;;
20462;SDS011;10390;53.566;9.980;2022-12-07T15:17:39;7.18;;;3.50;;
20462;SDS011;10390;53.566;9.980;2022-12-07T15:20:07;5.15;;;3.00;;
20462;SDS011;10390;53.566;9.980;2022-12-07T15:22:37;8.52;;;3.60;;
20462;SDS011;10390;53.566;9.980;2022-12-07T15:25:03;5.40;;;3.40;;
20462;SDS011;10390;53.566;9.980;2022-12-07T15:27:31;5.55;;;3.30;;
20462;SDS011;10390;53.566;9.980;2022-12-07T15:29:56;8.30;;;3.60;;
20462;SDS011;10390;53.566;9.980;2022-12-07T15:32:22;7.00;;;3.58;;
20462;SDS011;10390;53.566;9.980;2022-12-07T15:34:48;4.97;;;2.85;;
20462;SDS011;10390;53.566;9.980;2022-12-07T15:37:15;7.03;;;2.97;;
20462;SDS011;10390;53.566;9.980;2022-12-07T15:39:41;6.60;;;2.80;;
20462;SDS011;10390;53.566;9.980;2022-12-07T15:42:07;5.47;;;2.78;;
20462;SDS011;10390;53.566;9.980;2022-12-07T15:44:33;6.75;;;3.05;;
20462;SDS011;10390;53.566;9.980;2022-12-07T15:47:17;7.90;;;3.30;;
20462;SDS011;10390;53.566;9.980;2022-12-07T15:49:42;8.75;;;2.88;;
20462;SDS011;10390;53.566;9.980;2022-12-07T15:52:08;12.82;;;3.47;;
20462;SDS011;10390;53.566;9.980;2022-12-07T15:54:34;27.50;;;4.43;;
20462;SDS011;10390;53.566;9.980;2022-12-07T15:57:00;21.70;;;4.15;;
20462;SDS011;10390;53.566;9.980;2022-12-07T15:59:27;17.77;;;3.72;;
20462;SDS011;10390;53.566;9.980;2022-12-07T16:01:53;13.90;;;3.53;;
20462;SDS011;10390;53.566;9.980;2022-12-07T16:04:20;10.32;;;3.30;;
20462;SDS011;10390;53.566;9.980;2022-12-07T16:06:45;9.05;;;3.40;;
20462;SDS011;10390;53.566;9.980;2022-12-07T16:09:11;9.05;;;3.75;;
20462;SDS011;10390;53.566;9.980;2022-12-07T16:11:37;12.90;;;3.65;;
20462;SDS011;10390;53.566;9.980;2022-12-07T16:14:03;12.05;;;3.33;;
20462;SDS011;10390;53.566;9.980;2022-12-07T16:16:28;13.63;;;4.00;;
20462;SDS011;10390;53.566;9.980;2022-12-07T16:18:55;13.00;;;3.83;;
20462;SDS011;10390;53.566;9.980;2022-12-07T16:21:22;12.35;;;4.03;;
20462;SDS011;10390;53.566;9.980;2022-12-07T16:23:48;10.73;;;3.78;;
20462;SDS011;10390;53.566;9.980;2022-12-07T16:26:15;9.38;;;3.88;;
20462;SDS011;10390;53.566;9.980;2022-12-07T16:28:44;10.93;;;3.67;;
20462;SDS011;10390;53.566;9.980;2022-12-07T16:31:14;11.23;;;3.88;;
20462;SDS011;10390;53.566;9.980;2022-12-07T16:33:43;9.00;;;3.53;;
20462;SDS011;10390;53.566;9.980;2022-12-07T16:36:10;8.65;;;3.30;;
20462;SDS011;10390;53.566;9.980;2022-12-07T16:38:38;11.13;;;3.35;;